Time;durP1;ratioP1;P1;durP2;ratioP2;P2;SDS_P1;SDS_P2;PMS_P1;PMS_P2;Temp;Humidity;BMP_temperature;BMP_pressure;BME280_temperature;BME280_humidity;BME280_pressure;Samples;Min_cycle;Max_cycle;Signal;HPM_P1;HPM_P2
2021/06/03 00:00:37;;;;;;;11.50;5.18;;;;;;;12.98;100.00;96227.88;1056729;28;20564;-54
2021/06/03 00:01:09;;;;;;;9.07;4.82;;;;;;;12.91;100.00;96225.81;1056959;28;20094;-50
2021/06/03 00:01:40;;;;;;;8.15;4.75;;;;;;;12.90;100.00;96226.78;1057051;28;20024;-50
2021/06/03 00:02:11;;;;;;;7.18;4.90;;;;;;;12.97;100.00;96228.84;1056844;28;20362;-50
2021/06/03 00:02:43;;;;;;;11.82;5.30;;;;;;;12.98;100.00;96229.69;1056959;28;20015;-50
2021/06/03 00:03:14;;;;;;;8.32;5.68;;;;;;;12.95;100.00;96236.00;1056960;28;20008;-51
2021/06/03 00:03:45;;;;;;;9.40;5.72;;;;;;;12.94;100.00;96226.44;1056790;28;20507;-52
2021/06/03 00:04:16;;;;;;;9.80;5.45;;;;;;;12.94;100.00;96228.22;1056955;28;20477;-50
2021/06/03 00:04:46;;;;;;;9.93;5.90;;;;;;;12.96;100.00;96236.84;1056495;28;20016;-49
2021/06/03 00:05:20;;;;;;;7.78;4.82;;;;;;;13.02;100.00;96239.00;1056685;28;20012;-51
2021/06/03 00:05:52;;;;;;;8.68;5.82;;;;;;;12.97;100.00;96234.09;1056847;28;20090;-52
2021/06/03 00:06:23;;;;;;;8.23;6.13;;;;;;;12.94;100.00;96236.97;1056694;28;20085;-54
2021/06/03 00:06:53;;;;;;;7.57;5.50;;;;;;;12.92;100.00;96238.88;1056146;28;20042;-51
2021/06/03 00:07:24;;;;;;;18.50;6.18;;;;;;;12.92;100.00;96240.66;1052713;28;20062;-51
2021/06/03 00:07:55;;;;;;;10.63;6.47;;;;;;;12.88;100.00;96237.44;1052744;28;20024;-49
2021/06/03 00:08:27;;;;;;;10.80;6.13;;;;;;;12.87;100.00;96234.91;1052606;28;20023;-52
2021/06/03 00:08:57;;;;;;;9.05;5.63;;;;;;;12.82;100.00;96243.16;1052617;28;20020;-50
2021/06/03 00:09:28;;;;;;;11.63;6.50;;;;;;;12.82;100.00;96240.53;1052764;28;20091;-48
2021/06/03 00:09:58;;;;;;;7.50;5.40;;;;;;;12.80;100.00;96235.38;1052744;28;20363;-52
2021/06/03 00:10:30;;;;;;;7.68;5.60;;;;;;;12.84;100.00;96235.97;1052759;28;20055;-50
2021/06/03 00:11:04;;;;;;;9.43;5.88;;;;;;;12.84;100.00;96239.44;1053965;28;20016;-49
2021/06/03 00:11:35;;;;;;;7.60;5.57;;;;;;;12.83;100.00;96244.81;1056897;28;20038;-49
2021/06/03 00:12:06;;;;;;;8.77;6.13;;;;;;;12.84;100.00;96246.50;1056975;28;20075;-54
2021/06/03 00:12:37;;;;;;;9.35;5.63;;;;;;;12.84;100.00;96249.97;1056789;28;20072;-52
2021/06/03 00:13:07;;;;;;;7.68;5.47;;;;;;;12.82;100.00;96248.41;1056971;28;20350;-50
2021/06/03 00:13:39;;;;;;;9.60;6.15;;;;;;;12.83;100.00;96244.81;1056668;28;20484;-49
2021/06/03 00:14:09;;;;;;;9.65;5.90;;;;;;;12.86;100.00;96241.09;1056951;28;20521;-54
2021/06/03 00:14:40;;;;;;;7.28;5.25;;;;;;;12.85;100.00;96237.63;1056865;28;20023;-53
2021/06/03 00:15:12;;;;;;;10.07;5.40;;;;;;;12.90;100.00;96240.78;1056798;28;20028;-48
2021/06/03 00:15:43;;;;;;;8.40;5.72;;;;;;;12.93;100.00;96239.69;1056875;28;20023;-50
2021/06/03 00:16:14;;;;;;;9.80;5.55;;;;;;;12.88;100.00;96240.06;1057021;28;20020;-51
2021/06/03 00:16:45;;;;;;;8.20;5.53;;;;;;;12.86;100.00;96241.09;1056674;28;20094;-50
2021/06/03 00:17:16;;;;;;;8.40;5.70;;;;;;;12.86;100.00;96234.06;1056858;28;20016;-51
2021/06/03 00:17:47;;;;;;;11.35;5.78;;;;;;;12.85;100.00;96229.75;1056817;28;20026;-51
2021/06/03 00:18:18;;;;;;;10.60;5.78;;;;;;;12.86;100.00;96235.84;1056648;28;20389;-52
2021/06/03 00:18:48;;;;;;;9.93;5.60;;;;;;;12.84;100.00;96235.97;1056684;28;20435;-53
2021/06/03 00:19:19;;;;;;;9.70;6.05;;;;;;;12.83;100.00;96237.75;1056381;28;20091;-51
2021/06/03 00:19:50;;;;;;;9.02;5.72;;;;;;;12.81;100.00;96231.78;1056640;28;20023;-52
2021/06/03 00:20:24;;;;;;;8.82;5.55;;;;;;;12.80;100.00;96229.25;1056951;28;20011;-53
2021/06/03 00:20:55;;;;;;;8.65;5.25;;;;;;;12.82;100.00;96236.09;1056991;28;20026;-50
2021/06/03 00:21:26;;;;;;;7.53;5.78;;;;;;;12.83;100.00;96236.91;1056701;28;20103;-51
2021/06/03 00:21:56;;;;;;;10.02;6.38;;;;;;;12.83;100.00;96237.75;1056950;28;20034;-51
2021/06/03 00:22:27;;;;;;;9.23;6.10;;;;;;;12.81;100.00;96246.72;1056921;28;20492;-51
2021/06/03 00:22:57;;;;;;;8.88;5.63;;;;;;;12.81;100.00;96234.41;1056993;28;20023;-51
2021/06/03 00:23:28;;;;;;;8.95;5.78;;;;;;;12.78;100.00;96236.41;1056570;28;20012;-53
2021/06/03 00:23:58;;;;;;;12.02;5.93;;;;;;;12.76;100.00;96233.06;1056903;28;20016;-52
2021/06/03 00:24:30;;;;;;;8.30;6.07;;;;;;;12.79;100.00;96248.63;1056851;28;20023;-50
2021/06/03 00:25:03;;;;;;;9.82;5.55;;;;;;;12.77;100.00;96238.22;1057005;28;20292;-50
2021/06/03 00:25:33;;;;;;;12.68;6.03;;;;;;;12.77;100.00;96234.75;1056638;28;20030;-51
2021/06/03 00:26:04;;;;;;;10.85;6.32;;;;;;;12.76;100.00;96239.19;1056947;28;20023;-52
2021/06/03 00:26:35;;;;;;;9.48;6.30;;;;;;;12.79;100.00;96235.47;1056861;28;20024;-51
2021/06/03 00:27:05;;;;;;;8.25;5.65;;;;;;;12.78;100.00;96241.69;1056890;28;20020;-51
2021/06/03 00:27:36;;;;;;;7.18;5.65;;;;;;;12.78;100.00;96233.78;1055270;28;20025;-51
2021/06/03 00:28:06;;;;;;;8.90;5.97;;;;;;;12.79;100.00;96246.00;1052669;28;20016;-49
2021/06/03 00:28:37;;;;;;;9.60;5.53;;;;;;;12.75;100.00;96239.28;1052728;28;20024;-51
2021/06/03 00:29:09;;;;;;;10.77;6.28;;;;;;;12.76;100.00;96246.22;1052791;28;20031;-50
2021/06/03 00:29:40;;;;;;;6.85;5.40;;;;;;;12.74;100.00;96241.06;1052471;28;20016;-52
2021/06/03 00:30:10;;;;;;;9.60;5.88;;;;;;;12.76;100.00;96241.81;1052696;28;20478;-51
2021/06/03 00:30:41;;;;;;;9.80;6.15;;;;;;;12.71;100.00;96245.75;1052706;28;20089;-50
2021/06/03 00:31:11;;;;;;;9.73;6.07;;;;;;;12.70;100.00;96241.41;1052779;28;20046;-49
2021/06/03 00:31:43;;;;;;;9.77;6.50;;;;;;;12.66;100.00;96245.22;1052415;28;20446;-53
2021/06/03 00:32:13;;;;;;;13.45;6.63;;;;;;;12.62;100.00;96250.72;1052765;28;20435;-48
2021/06/03 00:32:44;;;;;;;12.90;6.43;;;;;;;12.58;100.00;96251.06;1052636;28;20016;-50
2021/06/03 00:33:15;;;;;;;7.55;5.53;;;;;;;12.56;100.00;96251.16;1052667;28;20026;-49
2021/06/03 00:33:45;;;;;;;8.68;5.63;;;;;;;12.55;100.00;96249.47;1052155;28;20027;-50
2021/06/03 00:34:16;;;;;;;9.55;5.85;;;;;;;12.61;100.00;96249.03;1051928;28;20030;-50
2021/06/03 00:34:46;;;;;;;8.88;5.97;;;;;;;12.61;100.00;96243.78;1054842;28;20028;-49
2021/06/03 00:35:19;;;;;;;10.55;6.25;;;;;;;12.60;100.00;96246.53;1056889;28;20015;-50
2021/06/03 00:35:50;;;;;;;8.85;5.80;;;;;;;12.56;100.00;96248.53;1056877;28;20020;-49
2021/06/03 00:36:21;;;;;;;6.90;5.40;;;;;;;12.57;100.00;96242.31;1056780;28;20098;-52
2021/06/03 00:36:52;;;;;;;9.32;5.70;;;;;;;12.63;100.00;96249.78;1056683;27;20023;-50
2021/06/03 00:37:22;;;;;;;11.10;6.30;;;;;;;12.61;100.00;96250.81;1056946;27;20075;-51
2021/06/03 00:37:53;;;;;;;10.10;6.00;;;;;;;12.62;100.00;96250.72;1056846;28;20425;-51
2021/06/03 00:38:23;;;;;;;9.13;6.22;;;;;;;12.61;100.00;96249.03;1056847;28;20353;-49
2021/06/03 00:38:54;;;;;;;9.90;6.70;;;;;;;12.61;100.00;96248.19;1056704;28;20500;-49
2021/06/03 00:39:24;;;;;;;10.50;5.90;;;;;;;12.61;100.00;96237.66;1056924;28;20019;-52
2021/06/03 00:39:55;;;;;;;6.57;5.32;;;;;;;12.66;100.00;96245.22;1056804;28;20026;-49
2021/06/03 00:40:25;;;;;;;12.50;5.80;;;;;;;12.64;100.00;96245.34;1056753;28;20043;-53
2021/06/03 00:40:56;;;;;;;9.70;5.70;;;;;;;12.64;100.00;96247.97;1056736;28;20077;-51
2021/06/03 00:41:26;;;;;;;8.30;5.63;;;;;;;12.66;100.00;96247.88;1056553;28;20023;-53
2021/06/03 00:41:57;;;;;;;9.65;5.60;;;;;;;12.67;100.00;96252.16;1056539;28;20023;-51
2021/06/03 00:42:29;;;;;;;8.07;5.50;;;;;;;12.65;100.00;96249.66;1056555;28;20020;-49
2021/06/03 00:42:59;;;;;;;11.07;5.97;;;;;;;12.65;100.00;96249.66;1056394;28;20390;-49
2021/06/03 00:43:31;;;;;;;8.32;6.00;;;;;;;12.61;100.00;96251.69;1056655;28;20090;-48
2021/06/03 00:44:02;;;;;;;7.82;5.85;;;;;;;12.61;100.00;96254.31;1056845;28;20022;-48
2021/06/03 00:44:34;;;;;;;15.05;6.55;;;;;;;12.60;100.00;96255.25;1056842;28;20023;-52
2021/06/03 00:45:05;;;;;;;9.32;6.22;;;;;;;12.61;100.00;96258.69;1056605;28;20092;-48
2021/06/03 00:45:37;;;;;;;12.93;6.03;;;;;;;12.57;100.00;96257.25;1056840;28;20488;-51
2021/06/03 00:46:08;;;;;;;10.43;6.43;;;;;;;12.53;100.00;96254.00;1056821;28;20015;-50
2021/06/03 00:46:38;;;;;;;10.70;5.45;;;;;;;12.52;100.00;96256.75;1056867;28;20016;-50
2021/06/03 00:47:09;;;;;;;9.35;5.95;;;;;;;12.54;100.00;96254.88;1056612;28;20430;-52
2021/06/03 00:47:40;;;;;;;10.88;6.18;;;;;;;12.52;100.00;96248.84;1052720;28;20016;-52
2021/06/03 00:48:10;;;;;;;8.68;5.93;;;;;;;12.49;100.00;96246.47;1052675;28;20024;-50
2021/06/03 00:48:41;;;;;;;10.80;5.82;;;;;;;12.53;100.00;96251.38;1052624;28;20024;-51
2021/06/03 00:49:11;;;;;;;8.98;6.32;;;;;;;12.57;100.00;96249.38;1052379;28;20020;-49
2021/06/03 00:49:42;;;;;;;11.60;5.93;;;;;;;12.52;100.00;96247.09;1052596;28;20497;-48
2021/06/03 00:50:30;;;;;;;9.30;5.45;;;;;;;12.47;100.00;96251.00;1052592;28;20044;-48
2021/06/03 00:51:02;;;;;;;8.73;6.03;;;;;;;12.43;100.00;96250.38;1052430;28;20680;-52
2021/06/03 00:51:32;;;;;;;8.98;5.97;;;;;;;12.42;100.00;96253.94;1052646;28;20093;-49
2021/06/03 00:52:04;;;;;;;8.50;6.07;;;;;;;12.40;100.00;96253.22;1052664;28;20070;-51
2021/06/03 00:52:34;;;;;;;12.00;5.78;;;;;;;12.38;100.00;96249.88;1052662;28;20054;-51
2021/06/03 00:53:08;;;;;;;8.38;6.03;;;;;;;12.39;100.00;96248.94;1052377;28;20024;-53
2021/06/03 00:53:39;;;;;;;8.43;5.63;;;;;;;12.38;100.00;96245.44;1052245;28;20016;-51
2021/06/03 00:54:10;;;;;;;9.15;6.00;;;;;;;12.36;100.00;96249.16;1052537;28;20031;-52
2021/06/03 00:54:41;;;;;;;9.52;6.30;;;;;;;12.30;100.00;96250.44;1052509;28;20111;-51
2021/06/03 00:55:11;;;;;;;8.30;6.13;;;;;;;12.33;100.00;96255.47;1052058;28;20030;-51
2021/06/03 00:55:45;;;;;;;6.88;5.60;;;;;;;12.32;100.00;96252.97;1052309;28;20019;-48
2021/06/03 00:56:15;;;;;;;8.50;6.25;;;;;;;12.28;100.00;96248.88;1052310;28;20385;-51
2021/06/03 00:56:46;;;;;;;10.27;6.72;;;;;;;12.28;100.00;96251.50;1052277;28;20019;-51
2021/06/03 00:57:16;;;;;;;8.13;5.75;;;;;;;12.28;100.00;96256.75;1052315;28;20016;-53
2021/06/03 00:57:47;;;;;;;8.57;5.65;;;;;;;12.25;100.00;96252.56;1052592;28;20042;-49
2021/06/03 00:58:17;;;;;;;9.65;6.13;;;;;;;12.25;100.00;96250.75;1055582;28;20023;-51
2021/06/03 00:58:48;;;;;;;8.30;5.90;;;;;;;12.24;100.00;96250.88;1056865;28;20149;-49
2021/06/03 00:59:18;;;;;;;9.68;6.30;;;;;;;12.24;100.00;96253.53;1056630;28;20586;-52
2021/06/03 00:59:49;;;;;;;12.80;5.88;;;;;;;12.24;100.00;96251.72;1056883;28;20045;-51
2021/06/03 01:00:20;;;;;;;8.25;6.13;;;;;;;12.24;100.00;96250.88;1056829;28;20464;-52
2021/06/03 01:00:51;;;;;;;9.02;5.70;;;;;;;12.21;100.00;96256.34;1056698;28;20042;-53
2021/06/03 01:01:22;;;;;;;7.78;6.15;;;;;;;12.22;100.00;96252.78;1056675;28;20072;-51
2021/06/03 01:01:53;;;;;;;8.25;5.63;;;;;;;12.21;100.00;96256.34;1056723;28;20032;-51
2021/06/03 01:02:23;;;;;;;11.02;5.70;;;;;;;12.20;100.00;96250.28;1056705;28;20017;-53
2021/06/03 01:02:54;;;;;;;8.93;5.80;;;;;;;12.17;100.00;96252.28;1056821;28;20019;-49
2021/06/03 01:03:25;;;;;;;8.50;5.88;;;;;;;12.14;100.00;96252.47;1056655;28;20012;-52
2021/06/03 01:03:55;;;;;;;10.95;6.80;;;;;;;12.13;100.00;96249.03;1056528;28;20465;-54
2021/06/03 01:04:26;;;;;;;8.38;6.20;;;;;;;12.15;100.00;96252.38;1056893;28;20007;-49
2021/06/03 01:04:57;;;;;;;10.20;7.03;;;;;;;12.17;100.00;96249.66;1056748;28;20076;-50
2021/06/03 01:05:30;;;;;;;10.75;6.10;;;;;;;12.18;100.00;96253.94;1056758;28;20098;-49
2021/06/03 01:06:04;;;;;;;7.43;5.93;;;;;;;12.18;100.00;96254.78;1056693;28;20056;-50
2021/06/03 01:06:35;;;;;;;8.85;6.03;;;;;;;12.18;100.00;96260.06;1056744;28;20008;-49
2021/06/03 01:07:05;;;;;;;7.93;5.25;;;;;;;12.18;100.00;96251.31;1054215;28;20273;-51
2021/06/03 01:07:36;;;;;;;9.25;6.07;;;;;;;12.17;100.00;96250.47;1052412;28;20019;-50
2021/06/03 01:08:10;;;;;;;9.77;6.53;;;;;;;12.21;100.00;96251.94;1052537;28;20462;-49
2021/06/03 01:08:46;;;;;;;10.68;6.60;;;;;;;12.20;100.00;96255.53;1052098;28;20031;-50
2021/06/03 01:09:28;;;;;;;7.75;6.03;;;;;;;12.21;100.00;96256.34;1052616;28;20016;-51
2021/06/03 01:10:12;;;;;;;8.93;5.50;;;;;;;12.16;100.00;96259.31;1052314;28;20045;-50
2021/06/03 01:10:53;;;;;;;9.05;6.03;;;;;;;12.24;100.00;96250.88;1052544;28;20008;-50
2021/06/03 01:11:29;;;;;;;8.23;6.15;;;;;;;12.26;100.00;96259.50;1048372;28;20069;-50
2021/06/03 01:12:06;;;;;;;7.63;6.22;;;;;;;12.23;100.00;96255.28;1048166;28;20235;-50
2021/06/03 01:12:46;;;;;;;7.00;5.80;;;;;;;12.20;100.00;96254.66;1048325;28;20016;-51
2021/06/03 01:13:31;;;;;;;12.32;6.10;;;;;;;12.19;100.00;96256.47;1048385;28;20023;-51
2021/06/03 01:14:12;;;;;;;10.43;5.90;;;;;;;12.25;100.00;96265.69;1048017;28;20024;-49
2021/06/03 01:14:45;;;;;;;9.48;5.80;;;;;;;12.22;100.00;96260.69;1048473;28;20385;-48
2021/06/03 01:15:16;;;;;;;10.90;6.50;;;;;;;12.18;100.00;96257.44;1048404;28;20338;-50
2021/06/03 01:15:47;;;;;;;8.52;5.72;;;;;;;12.16;100.00;96264.59;1048435;28;20377;-50
2021/06/03 01:16:18;;;;;;;10.60;6.88;;;;;;;12.16;100.00;96264.59;1048163;28;20021;-50
2021/06/03 01:16:50;;;;;;;10.10;5.68;;;;;;;12.20;100.00;96262.53;1048334;28;20020;-51
2021/06/03 01:17:21;;;;;;;12.50;6.35;;;;;;;12.22;100.00;96264.13;1048380;28;20131;-50
2021/06/03 01:17:52;;;;;;;10.43;6.00;;;;;;;12.20;100.00;96266.03;1048324;28;20669;-50
2021/06/03 01:18:22;;;;;;;9.18;7.05;;;;;;;12.14;100.00;96269.06;1048073;28;20249;-52
2021/06/03 01:18:53;;;;;;;10.40;5.55;;;;;;;12.13;100.00;96262.16;1048441;28;20017;-49
2021/06/03 01:19:34;;;;;;;7.93;6.15;;;;;;;12.16;100.00;96263.72;1048401;28;20020;-51
2021/06/03 01:20:06;;;;;;;8.65;5.90;;;;;;;12.16;100.00;96266.34;1048234;28;20020;-50
2021/06/03 01:20:37;;;;;;;7.90;6.18;;;;;;;12.18;100.00;96261.81;1048408;28;20484;-52
2021/06/03 01:21:21;;;;;;;10.18;6.07;;;;;;;12.18;100.00;96261.81;1048410;28;20029;-50
2021/06/03 01:22:11;;;;;;;7.43;6.25;;;;;;;12.17;100.00;96265.41;1048323;28;20505;-50
2021/06/03 01:22:54;;;;;;;6.88;5.72;;;;;;;12.14;100.00;96261.19;1048306;28;20016;-51
2021/06/03 01:23:26;;;;;;;9.88;5.72;;;;;;;12.11;100.00;96271.94;1048335;28;20413;-52
2021/06/03 01:24:14;;;;;;;10.55;6.72;;;;;;;12.14;100.00;96263.00;1048113;28;20255;-51
2021/06/03 01:24:47;;;;;;;8.90;6.20;;;;;;;12.13;100.00;96267.41;1048324;28;20070;-51
2021/06/03 01:25:18;;;;;;;13.73;6.93;;;;;;;12.10;100.00;96270.25;1048308;28;20247;-50
2021/06/03 01:25:49;;;;;;;7.82;6.03;;;;;;;12.08;100.00;96269.53;1048386;28;20092;-50
2021/06/03 01:26:19;;;;;;;8.32;6.28;;;;;;;12.05;100.00;96270.59;1048164;28;20023;-50
2021/06/03 01:26:52;;;;;;;7.68;5.70;;;;;;;12.05;100.00;96265.34;1048350;28;20025;-50
2021/06/03 01:27:26;;;;;;;8.73;6.25;;;;;;;12.04;100.00;96270.69;1048395;28;20028;-51
2021/06/03 01:27:57;;;;;;;11.30;6.45;;;;;;;12.03;100.00;96275.13;1056509;28;20271;-51
2021/06/03 01:28:27;;;;;;;8.07;6.10;;;;;;;12.01;100.00;96274.38;1056466;28;20065;-53
2021/06/03 01:28:58;;;;;;;7.82;6.03;;;;;;;12.01;100.00;96278.78;1057408;28;20039;-50
2021/06/03 01:29:30;;;;;;;10.60;6.30;;;;;;;12.02;100.00;96277.84;1057197;28;20019;-53
2021/06/03 01:30:11;;;;;;;8.13;6.15;;;;;;;12.05;100.00;96277.63;1056727;28;20090;-51
2021/06/03 01:30:46;;;;;;;9.50;5.90;;;;;;;12.12;100.00;96270.16;1056524;28;20016;-50
2021/06/03 01:31:17;;;;;;;7.50;6.18;;;;;;;12.11;100.00;96271.09;1056736;28;20145;-51
2021/06/03 01:31:48;;;;;;;8.15;5.68;;;;;;;12.11;100.00;96271.94;1056669;28;20369;-50
2021/06/03 01:32:20;;;;;;;8.80;6.25;;;;;;;12.06;100.00;96274.88;1056728;28;20461;-51
2021/06/03 01:32:53;;;;;;;7.55;5.53;;;;;;;12.05;100.00;96278.47;1056513;28;20026;-50
2021/06/03 01:33:25;;;;;;;8.60;6.00;;;;;;;12.06;100.00;96274.03;1056721;28;20014;-53
2021/06/03 01:33:56;;;;;;;8.90;6.47;;;;;;;12.09;100.00;96273.84;1056457;28;20024;-52
2021/06/03 01:34:27;;;;;;;11.75;6.65;;;;;;;12.10;100.00;96280.75;1056735;28;20738;-49
2021/06/03 01:34:58;;;;;;;8.13;6.10;;;;;;;12.08;100.00;96279.19;1052625;28;20020;-51
2021/06/03 01:35:32;;;;;;;9.40;6.75;;;;;;;12.11;100.00;96282.44;1052457;28;20020;-50
2021/06/03 01:36:05;;;;;;;9.73;6.10;;;;;;;12.14;100.00;96279.59;1052534;28;20476;-50
2021/06/03 01:36:35;;;;;;;8.75;5.65;;;;;;;12.18;100.00;96288.09;1052461;28;20261;-51
2021/06/03 01:37:06;;;;;;;8.15;6.47;;;;;;;12.19;100.00;96282.72;1052174;28;20790;-49
2021/06/03 01:37:38;;;;;;;9.68;6.43;;;;;;;12.17;100.00;96276.75;1052538;28;20483;-51
2021/06/03 01:38:12;;;;;;;10.68;7.28;;;;;;;12.14;100.00;96279.59;1052446;28;20038;-48
2021/06/03 01:38:42;;;;;;;10.00;6.30;;;;;;;12.15;100.00;96283.06;1052412;28;20295;-50
2021/06/03 01:39:13;;;;;;;7.72;5.80;;;;;;;12.13;100.00;96280.53;1052297;28;20260;-53
2021/06/03 01:39:44;;;;;;;9.65;5.68;;;;;;;12.13;100.00;96279.72;1052585;28;20365;-51
2021/06/03 01:40:15;;;;;;;9.95;5.90;;;;;;;12.10;100.00;96275.50;1052607;28;20373;-51
2021/06/03 01:40:46;;;;;;;9.48;6.55;;;;;;;12.09;100.00;96280.84;1052455;28;20095;-49
2021/06/03 01:41:17;;;;;;;8.38;5.90;;;;;;;12.05;100.00;96282.91;1052288;28;20440;-51
2021/06/03 01:41:48;;;;;;;8.15;6.43;;;;;;;12.03;100.00;96276.88;1052502;28;20020;-49
2021/06/03 01:42:18;;;;;;;9.82;6.05;;;;;;;12.01;100.00;96274.38;1052468;28;20027;-51
2021/06/03 01:42:49;;;;;;;7.72;6.18;;;;;;;12.01;100.00;96278.78;1053049;28;20065;-51
2021/06/03 01:43:21;;;;;;;8.45;6.03;;;;;;;12.02;100.00;96277.84;1052227;28;20460;-51
2021/06/03 01:43:51;;;;;;;8.00;6.53;;;;;;;12.00;100.00;96280.56;1051755;28;20127;-52
2021/06/03 01:44:22;;;;;;;8.05;6.43;;;;;;;12.00;100.00;96277.94;1052539;28;20031;-52
2021/06/03 01:44:53;;;;;;;8.20;5.30;;;;;;;12.00;100.00;96277.13;1052597;28;20031;-53
2021/06/03 01:45:24;;;;;;;11.55;6.82;;;;;;;11.99;100.00;96276.28;1052278;28;20801;-49
2021/06/03 01:45:54;;;;;;;11.05;5.25;;;;;;;12.01;100.00;96279.63;1052552;28;20099;-49
2021/06/03 01:46:25;;;;;;;8.80;6.47;;;;;;;12.05;100.00;96278.47;1052486;28;20016;-49
2021/06/03 01:46:55;;;;;;;8.55;6.03;;;;;;;12.02;100.00;96277.84;1052455;28;20031;-50
2021/06/03 01:47:26;;;;;;;7.57;6.15;;;;;;;12.05;100.00;96277.63;1054378;28;20050;-49
2021/06/03 01:47:56;;;;;;;9.25;5.57;;;;;;;12.09;100.00;96273.84;1056774;28;20023;-50
2021/06/03 01:48:28;;;;;;;8.32;6.07;;;;;;;12.10;100.00;96282.56;1056712;28;20016;-50
2021/06/03 01:48:58;;;;;;;10.50;6.13;;;;;;;12.11;100.00;96274.56;1056740;28;20050;-50
2021/06/03 01:49:29;;;;;;;7.63;6.00;;;;;;;12.08;100.00;96282.66;1056475;28;20023;-50
2021/06/03 01:49:59;;;;;;;8.63;5.93;;;;;;;12.04;100.00;96282.03;1056783;28;20362;-53
2021/06/03 01:50:30;;;;;;;8.38;5.88;;;;;;;12.06;100.00;96279.31;1056742;28;20095;-49
2021/06/03 01:51:03;;;;;;;10.48;6.00;;;;;;;12.06;100.00;96279.31;1056668;28;20094;-50
2021/06/03 01:51:33;;;;;;;10.10;6.22;;;;;;;12.05;100.00;96282.91;1056432;28;20023;-52
2021/06/03 01:52:04;;;;;;;6.65;5.78;;;;;;;12.05;100.00;96283.72;1056700;28;20277;-51
2021/06/03 01:52:35;;;;;;;12.65;5.90;;;;;;;12.04;100.00;96281.19;1056740;28;20081;-49
2021/06/03 01:53:06;;;;;;;10.27;5.95;;;;;;;12.04;100.00;96281.19;1056675;28;20383;-50
2021/06/03 01:53:36;;;;;;;8.02;5.85;;;;;;;12.01;100.00;96279.63;1056272;28;20384;-51
2021/06/03 01:54:07;;;;;;;10.38;6.13;;;;;;;12.02;100.00;96286.56;1056714;28;20011;-48
2021/06/03 01:54:37;;;;;;;8.27;6.20;;;;;;;12.05;100.00;96282.91;1056750;28;20023;-49
2021/06/03 01:55:09;;;;;;;10.30;5.75;;;;;;;12.08;100.00;96281.81;1056608;28;20089;-52
2021/06/03 01:55:40;;;;;;;8.07;5.50;;;;;;;12.10;100.00;96279.94;1056478;28;20019;-50
2021/06/03 01:56:11;;;;;;;7.97;5.30;;;;;;;12.12;100.00;96283.28;1056646;28;20781;-51
2021/06/03 01:56:42;;;;;;;8.88;5.35;;;;;;;12.15;100.00;96278.66;1056601;28;20015;-51
2021/06/03 01:57:12;;;;;;;8.43;5.60;;;;;;;12.11;100.00;96284.25;1056652;28;20020;-49
2021/06/03 01:57:43;;;;;;;8.52;5.93;;;;;;;12.09;100.00;96278.22;1056437;28;20007;-49
2021/06/03 01:58:14;;;;;;;10.02;6.00;;;;;;;12.09;100.00;96278.22;1056715;28;20050;-52
2021/06/03 01:58:45;;;;;;;8.27;5.90;;;;;;;12.11;100.00;96279.81;1056806;28;20376;-50
2021/06/03 01:59:16;;;;;;;9.57;5.88;;;;;;;12.11;100.00;96276.38;1056704;28;20012;-50
2021/06/03 01:59:47;;;;;;;9.95;5.50;;;;;;;12.12;100.00;96281.47;1056404;28;20787;-52
2021/06/03 02:00:19;;;;;;;8.35;6.00;;;;;;;12.12;100.00;96280.66;1056673;28;20012;-50
2021/06/03 02:00:52;;;;;;;10.75;5.65;;;;;;;12.08;100.00;96285.28;1056712;28;20483;-49
2021/06/03 02:01:23;;;;;;;9.38;6.30;;;;;;;12.10;100.00;96285.19;1056704;28;20468;-49
2021/06/03 02:01:53;;;;;;;8.63;5.68;;;;;;;12.12;100.00;96283.28;1056334;28;20016;-50
2021/06/03 02:02:24;;;;;;;7.80;5.93;;;;;;;12.15;100.00;96286.53;1056752;28;20094;-49
2021/06/03 02:02:54;;;;;;;7.55;5.90;;;;;;;12.21;100.00;96288.72;1056664;28;20388;-51
2021/06/03 02:03:25;;;;;;;9.02;6.25;;;;;;;12.12;100.00;96273.59;1056537;28;20019;-51
2021/06/03 02:03:56;;;;;;;7.57;5.68;;;;;;;12.20;100.00;96284.41;1056237;28;20019;-50
2021/06/03 02:04:27;;;;;;;6.90;5.53;;;;;;;12.20;100.00;96287.03;1056651;28;20081;-50
2021/06/03 02:04:57;;;;;;;7.10;5.85;;;;;;;12.18;100.00;96293.34;1056717;28;20114;-50
2021/06/03 02:05:28;;;;;;;8.70;5.25;;;;;;;12.13;100.00;96288.44;1056652;28;20076;-54
2021/06/03 02:05:59;;;;;;;8.13;5.43;;;;;;;12.10;100.00;96280.75;1056478;28;20045;-51
2021/06/03 02:06:29;;;;;;;8.77;5.95;;;;;;;12.13;100.00;96282.34;1056662;28;20016;-52
2021/06/03 02:07:00;;;;;;;8.82;6.32;;;;;;;12.14;100.00;96291.88;1054969;28;20049;-48
2021/06/03 02:07:31;;;;;;;10.80;6.05;;;;;;;12.13;100.00;96292.84;1052437;28;20366;-51
2021/06/03 02:08:01;;;;;;;7.60;5.75;;;;;;;12.14;100.00;96289.25;1052250;28;20042;-49
2021/06/03 02:08:32;;;;;;;7.18;5.68;;;;;;;12.15;100.00;96288.31;1052414;28;20123;-50
2021/06/03 02:09:05;;;;;;;8.02;5.53;;;;;;;12.13;100.00;96290.22;1052429;28;20031;-51
2021/06/03 02:09:35;;;;;;;8.13;5.70;;;;;;;12.13;100.00;96290.22;1052482;28;20028;-51
2021/06/03 02:10:06;;;;;;;8.32;6.15;;;;;;;12.13;100.00;96284.97;1052196;28;20016;-51
2021/06/03 02:10:37;;;;;;;7.15;5.53;;;;;;;12.14;100.00;96286.63;1052483;28;20020;-51
2021/06/03 02:11:08;;;;;;;8.52;5.65;;;;;;;12.09;100.00;96284.34;1054837;28;20497;-50
2021/06/03 02:11:39;;;;;;;10.15;6.13;;;;;;;12.09;100.00;96294.84;1056706;28;20027;-52
2021/06/03 02:12:10;;;;;;;7.80;5.75;;;;;;;12.09;100.00;96283.47;1056448;28;20035;-52
2021/06/03 02:12:45;;;;;;;7.00;5.57;;;;;;;12.08;100.00;96287.06;1056595;28;20023;-53
2021/06/03 02:13:18;;;;;;;8.73;5.82;;;;;;;12.05;100.00;96288.16;1056536;28;20102;-50
2021/06/03 02:13:52;;;;;;;7.43;5.40;;;;;;;12.05;100.00;96282.91;1056392;28;20026;-51
2021/06/03 02:14:26;;;;;;;8.20;5.95;;;;;;;12.05;100.00;96278.47;1056393;28;20021;-50
2021/06/03 02:14:56;;;;;;;8.55;5.45;;;;;;;12.01;100.00;96279.63;1056634;28;20081;-53
2021/06/03 02:15:30;;;;;;;7.10;5.55;;;;;;;12.00;100.00;96283.19;1056614;28;20258;-51
2021/06/03 02:16:11;;;;;;;8.35;5.65;;;;;;;11.99;100.00;96280.69;1056658;28;20102;-50
2021/06/03 02:16:50;;;;;;;9.43;5.13;;;;;;;11.98;100.00;96282.47;1056387;28;20023;-50
2021/06/03 02:17:24;;;;;;;11.13;5.75;;;;;;;11.96;100.00;96287.00;1056651;28;20019;-53
2021/06/03 02:17:56;;;;;;;7.45;5.65;;;;;;;11.92;100.00;96276.81;1056637;28;20103;-52
2021/06/03 02:18:39;;;;;;;7.05;5.85;;;;;;;11.96;100.00;96284.38;1056450;28;20592;-52
2021/06/03 02:19:13;;;;;;;8.77;5.70;;;;;;;11.89;100.00;96285.72;1056697;28;20250;-50
2021/06/03 02:20:04;;;;;;;12.30;6.68;;;;;;;11.90;100.00;96282.19;1056724;28;20694;-50
2021/06/03 02:20:36;;;;;;;8.98;6.00;;;;;;;11.86;100.00;96283.28;1057246;27;20257;-49
2021/06/03 02:21:06;;;;;;;8.15;5.85;;;;;;;11.82;100.00;96285.31;1057433;28;20039;-52
2021/06/03 02:21:37;;;;;;;8.98;5.85;;;;;;;11.81;100.00;96278.38;1057404;28;20253;-51
2021/06/03 02:22:08;;;;;;;6.88;5.82;;;;;;;11.81;100.00;96290.66;1057357;28;20057;-49
2021/06/03 02:22:39;;;;;;;10.07;5.93;;;;;;;11.78;100.00;96280.38;1057230;28;20023;-49
2021/06/03 02:23:10;;;;;;;8.52;5.68;;;;;;;11.78;100.00;96277.75;1057041;28;20542;-50
2021/06/03 02:23:41;;;;;;;9.18;5.75;;;;;;;11.80;100.00;96284.56;1056880;28;20030;-50
2021/06/03 02:24:11;;;;;;;8.32;5.50;;;;;;;11.79;100.00;96287.31;1057147;28;20104;-50
2021/06/03 02:24:42;;;;;;;8.23;6.18;;;;;;;11.78;100.00;96283.00;1056864;28;20011;-50
2021/06/03 02:25:13;;;;;;;10.38;5.60;;;;;;;11.74;100.00;96286.78;1057391;28;20024;-52
2021/06/03 02:25:43;;;;;;;12.30;7.10;;;;;;;11.74;100.00;96278.91;1057412;28;20027;-52
2021/06/03 02:26:14;;;;;;;9.90;5.82;;;;;;;11.73;100.00;96278.09;1057430;28;20393;-51
2021/06/03 02:26:44;;;;;;;7.75;6.43;;;;;;;11.74;100.00;96278.91;1057196;28;20492;-51
2021/06/03 02:27:16;;;;;;;7.80;5.72;;;;;;;11.74;100.00;96279.75;1057346;28;20016;-52
2021/06/03 02:27:47;;;;;;;6.65;5.30;;;;;;;11.71;100.00;96285.19;1054682;28;20026;-50
2021/06/03 02:28:18;;;;;;;7.72;6.38;;;;;;;11.68;100.00;96282.81;1053123;28;20016;-51
2021/06/03 02:28:48;;;;;;;9.00;5.90;;;;;;;11.65;100.00;96285.63;1053027;28;20258;-51